Time;durP1;ratioP1;P1;durP2;ratioP2;P2;SDS_P1;SDS_P2;PMS_P1;PMS_P2;Temp;Humidity;BMP_temperature;BMP_pressure;BME280_temperature;BME280_humidity;BME280_pressure;Samples;Min_cycle;Max_cycle;Signal;HPM_P1;HPM_P2
2021/12/18 08:01:31;;;;;;;12.27;6.47;;;;;;;1.48;100.00;101168.69;5110714;27;20829;-80
2021/12/18 08:04:00;;;;;;;11.85;5.95;;;;;;;1.55;100.00;101159.41;5111078;28;20048;-78
2021/12/18 08:06:27;;;;;;;12.95;5.75;;;;;;;1.77;100.00;101164.50;5109840;28;20047;-79
2021/12/18 08:08:58;;;;;;;8.65;5.22;;;;;;;1.82;100.00;101166.94;5109021;28;20097;-78
2021/12/18 08:11:25;;;;;;;11.02;6.45;;;;;;;1.99;100.00;101168.78;5109010;28;20058;-79
2021/12/18 08:14:00;;;;;;;11.73;6.47;;;;;;;2.13;100.00;101163.53;5109419;28;20134;-80
2021/12/18 08:16:30;;;;;;;12.23;6.38;;;;;;;2.12;100.00;101163.59;5109751;28;20059;-79
2021/12/18 08:18:57;;;;;;;12.15;6.50;;;;;;;2.22;100.00;101164.00;5109489;28;20142;-78
2021/12/18 08:21:26;;;;;;;13.40;6.80;;;;;;;2.32;100.00;101177.78;5098807;28;20060;-79
2021/12/18 08:23:57;;;;;;;12.98;6.57;;;;;;;2.28;100.00;101153.78;5104358;28;20403;-79
2021/12/18 08:26:29;;;;;;;12.48;7.10;;;;;;;2.39;100.00;101163.94;5109034;28;20566;-80
2021/12/18 08:28:57;;;;;;;11.15;6.13;;;;;;;2.36;100.00;101163.25;5109544;28;20055;-82
2021/12/18 08:31:33;;;;;;;12.30;7.22;;;;;;;2.34;100.00;101152.59;5109617;28;20048;-80
2021/12/18 08:34:11;;;;;;;15.27;8.00;;;;;;;2.26;100.00;101160.22;5108727;28;20055;-80
2021/12/18 08:36:43;;;;;;;13.35;6.35;;;;;;;2.41;100.00;101169.22;5109260;28;20047;-80
2021/12/18 08:39:09;;;;;;;12.27;6.18;;;;;;;2.42;100.00;101157.53;5108913;28;20051;-80
2021/12/18 08:41:39;;;;;;;14.48;6.93;;;;;;;2.37;100.00;101147.06;5107606;28;20043;-80
2021/12/18 08:44:06;;;;;;;11.95;6.47;;;;;;;2.54;100.00;101169.44;5109321;28;20047;-80
2021/12/18 08:46:35;;;;;;;11.85;6.25;;;;;;;2.60;100.00;101163.72;5108934;28;20039;-80
2021/12/18 08:49:02;;;;;;;12.82;7.28;;;;;;;2.56;100.00;101151.41;5109191;28;20052;-80
2021/12/18 08:51:29;;;;;;;13.15;7.10;;;;;;;2.59;100.00;101161.97;5108396;28;20055;-80
2021/12/18 08:53:59;;;;;;;14.18;6.97;;;;;;;2.52;100.00;101144.50;5108708;28;20156;-80
2021/12/18 08:56:26;;;;;;;12.45;6.32;;;;;;;2.48;100.00;101154.50;5109718;28;20051;-80
2021/12/18 08:58:58;;;;;;;13.90;6.68;;;;;;;2.60;100.00;101155.66;5110037;28;20047;-80
2021/12/18 09:01:26;;;;;;;12.77;6.32;;;;;;;2.59;100.00;101154.81;5108070;28;20465;-80
2021/12/18 09:03:54;;;;;;;13.60;6.65;;;;;;;2.79;100.00;101155.53;5108569;28;20051;-80
2021/12/18 09:06:21;;;;;;;15.73;7.25;;;;;;;2.60;100.00;101156.53;5108333;28;20044;-80
2021/12/18 09:08:50;;;;;;;12.20;6.55;;;;;;;2.64;100.00;101152.72;5108824;28;20044;-80
2021/12/18 09:11:17;;;;;;;15.37;6.90;;;;;;;2.67;100.00;101156.22;5102707;28;20052;-80
2021/12/18 09:13:44;;;;;;;15.65;7.97;;;;;;;2.62;100.00;101169.88;5094865;28;20298;-79
2021/12/18 09:16:11;;;;;;;14.85;6.53;;;;;;;2.56;100.00;101156.78;5095324;28;20430;-80
2021/12/18 09:18:39;;;;;;;14.00;7.60;;;;;;;2.46;100.00;101159.97;5095845;28;20105;-80
2021/12/18 09:21:11;;;;;;;14.02;6.90;;;;;;;2.48;100.00;101141.97;5095762;28;20044;-80
2021/12/18 09:23:41;;;;;;;13.10;7.38;;;;;;;2.51;100.00;101156.19;5094752;28;20047;-79
2021/12/18 09:26:08;;;;;;;19.25;7.13;;;;;;;2.52;100.00;101147.19;5095153;28;20055;-80
2021/12/18 09:28:35;;;;;;;17.13;7.82;;;;;;;2.47;100.00;101145.59;5094394;28;20055;-79
2021/12/18 09:31:02;;;;;;;14.85;7.60;;;;;;;2.47;100.00;101142.91;5093555;28;20461;-80
2021/12/18 09:33:29;;;;;;;14.60;7.63;;;;;;;2.49;100.00;101145.53;5094261;28;20055;-80
2021/12/18 09:35:58;;;;;;;12.93;6.28;;;;;;;2.51;100.00;101148.13;5093509;28;20055;-80
2021/12/18 09:38:32;;;;;;;13.25;7.35;;;;;;;2.50;100.00;101152.63;5094312;28;20048;-80
2021/12/18 09:40:59;;;;;;;18.58;7.43;;;;;;;2.50;100.00;101136.53;5093622;28;20060;-80
2021/12/18 09:43:30;;;;;;;10.32;6.10;;;;;;;2.62;100.00;101145.69;5093670;28;20509;-80
2021/12/18 09:46:02;;;;;;;16.02;7.43;;;;;;;2.59;100.00;101136.00;5089499;28;20048;-80
2021/12/18 09:48:30;;;;;;;15.70;6.38;;;;;;;2.62;100.00;101145.69;5085878;28;20044;-80
2021/12/18 09:50:59;;;;;;;13.23;6.75;;;;;;;2.63;100.00;101134.91;5091195;28;20054;-80
2021/12/18 09:53:27;;;;;;;12.90;6.38;;;;;;;2.71;100.00;101130.88;5090747;28;20525;-79
2021/12/18 09:55:55;;;;;;;15.32;7.40;;;;;;;2.71;100.00;101141.63;5095347;28;20044;-80
2021/12/18 09:58:22;;;;;;;14.27;7.45;;;;;;;2.81;100.00;101132.97;5093416;28;20059;-80
2021/12/18 10:00:49;;;;;;;18.02;8.38;;;;;;;2.65;100.00;101126.75;5090400;28;20055;-80
2021/12/18 10:03:16;;;;;;;12.93;7.25;;;;;;;2.75;100.00;101132.47;5092972;28;20055;-80
2021/12/18 10:05:43;;;;;;;15.85;7.88;;;;;;;2.77;100.00;101123.38;5093791;28;20044;-80
2021/12/18 10:08:16;;;;;;;14.30;6.63;;;;;;;2.86;100.00;101116.63;5093042;28;20113;-79
2021/12/18 10:13:57;;;;;;;14.60;7.95;;;;;;;2.93;100.00;101101.84;5129220;27;20385;-80
2021/12/18 10:16:28;;;;;;;12.93;6.75;;;;;;;2.99;100.00;101096.13;5127516;27;20055;-80
2021/12/18 10:18:55;;;;;;;17.77;7.85;;;;;;;2.97;100.00;101099.88;5119205;27;20627;-79
2021/12/18 10:21:27;;;;;;;15.45;8.23;;;;;;;3.00;100.00;101119.34;5108718;28;20126;-79
2021/12/18 10:23:56;;;;;;;14.45;7.32;;;;;;;3.03;100.00;101109.38;5114063;28;20468;-80
2021/12/18 10:26:37;;;;;;;19.10;8.98;;;;;;;3.03;100.00;101112.94;5113858;27;20127;-80
2021/12/18 10:29:26;;;;;;;14.45;7.53;;;;;;;2.91;100.00;101103.78;5113729;27;20056;-80
2021/12/18 10:31:56;;;;;;;19.70;8.55;;;;;;;2.94;100.00;101102.75;5127163;27;20066;-80
2021/12/18 10:34:25;;;;;;;16.33;7.75;;;;;;;2.81;100.00;101099.88;5115674;27;20571;-80
2021/12/18 10:37:13;;;;;;;15.13;8.00;;;;;;;2.87;100.00;101114.78;5116654;27;20043;-80
2021/12/18 10:39:44;;;;;;;15.48;6.72;;;;;;;2.82;100.00;101105.16;5108483;28;20048;-79
2021/12/18 10:42:22;;;;;;;15.65;7.65;;;;;;;2.80;100.00;101099.03;5109988;28;20644;-80
2021/12/18 10:45:09;;;;;;;16.67;7.97;;;;;;;2.94;100.00;101095.53;5122074;27;20044;-80
2021/12/18 10:48:00;;;;;;;31.77;12.20;;;;;;;3.02;100.00;101092.41;5131203;27;20043;-80
2021/12/18 10:50:34;;;;;;;60.63;22.55;;;;;;;3.05;100.00;101088.69;5131055;27;20052;-79
2021/12/18 10:53:05;;;;;;;130.30;43.42;;;;;;;3.18;100.00;101093.25;5098053;28;20044;-80
2021/12/18 10:55:38;;;;;;;29.33;12.55;;;;;;;3.19;100.00;101092.28;5089519;28;20074;-80
2021/12/18 10:58:07;;;;;;;15.57;8.55;;;;;;;3.15;100.00;101096.09;5097840;28;20348;-80
2021/12/18 11:00:39;;;;;;;16.75;8.25;;;;;;;3.09;100.00;101085.72;5111377;28;20040;-79
2021/12/18 11:03:30;;;;;;;16.83;7.78;;;;;;;3.30;100.00;101088.09;5120008;27;20054;-80
2021/12/18 11:06:18;;;;;;;12.05;6.93;;;;;;;3.14;100.00;101064.81;5110527;27;20052;-79
2021/12/18 11:08:56;;;;;;;14.88;7.75;;;;;;;3.26;100.00;101082.03;5102347;28;20043;-81
2021/12/18 11:14:22;;;;;;;13.73;7.85;;;;;;;3.18;100.00;101062.81;5107187;28;20407;-84
2021/12/18 11:16:52;;;;;;;15.23;7.70;;;;;;;3.28;100.00;101068.50;5110114;27;20140;-83
2021/12/18 11:19:20;;;;;;;13.95;7.57;;;;;;;3.25;100.00;101056.13;5106592;28;20044;-79
2021/12/18 11:21:49;;;;;;;15.38;7.53;;;;;;;3.25;100.00;101049.88;5089049;28;20044;-79
2021/12/18 11:24:16;;;;;;;14.85;7.03;;;;;;;3.21;100.00;101035.75;5093506;28;20079;-79
2021/12/18 11:26:46;;;;;;;15.48;7.88;;;;;;;3.17;100.00;101031.50;5078898;28;20048;-79
2021/12/18 11:29:15;;;;;;;18.00;7.38;;;;;;;3.31;100.00;101036.06;5108093;28;20039;-79
2021/12/18 11:31:47;;;;;;;14.13;7.05;;;;;;;3.29;100.00;101030.78;5089405;28;20044;-80
2021/12/18 11:34:16;;;;;;;15.27;8.38;;;;;;;3.32;100.00;101044.03;5101199;28;20048;-79
2021/12/18 11:36:45;;;;;;;16.35;8.05;;;;;;;3.24;100.00;101045.44;5086006;28;20048;-79
2021/12/18 11:39:15;;;;;;;14.07;7.60;;;;;;;3.25;100.00;101034.63;5096983;28;20062;-79
2021/12/18 11:41:47;;;;;;;14.03;7.40;;;;;;;3.14;100.00;101019.13;5105657;28;20116;-79
2021/12/18 11:44:25;;;;;;;14.93;7.47;;;;;;;3.33;100.00;101023.41;5093671;28;20442;-79
2021/12/18 11:46:52;;;;;;;15.57;8.30;;;;;;;3.39;100.00;101027.53;5094549;28;20075;-79
2021/12/18 11:49:22;;;;;;;15.30;8.18;;;;;;;3.48;100.00;101011.72;5088798;28;20051;-79
2021/12/18 11:51:59;;;;;;;;;;;;;;;3.48;100.00;101021.59;5114399;28;20097;-80
2021/12/18 11:54:50;;;;;;;15.88;8.13;;;;;;;3.56;100.00;101029.22;5085512;28;20375;-79
2021/12/18 11:57:37;;;;;;;17.90;7.82;;;;;;;3.54;100.00;101023.91;5093983;28;20094;-80
2021/12/18 12:00:06;;;;;;;16.00;8.48;;;;;;;3.45;100.00;101002.97;5094039;28;20056;-79
2021/12/18 12:02:45;;;;;;;16.05;8.60;;;;;;;3.54;100.00;101000.56;5094952;28;20047;-79
2021/12/18 12:05:14;;;;;;;14.88;8.35;;;;;;;3.60;100.00;101006.50;5093531;28;20051;-79
2021/12/18 12:07:43;;;;;;;20.65;8.73;;;;;;;3.63;100.00;100996.44;5097167;28;20043;-80
2021/12/18 12:10:22;;;;;;;14.80;8.02;;;;;;;3.61;100.00;101002.88;5096179;28;20048;-79
2021/12/18 12:12:54;;;;;;;14.75;7.97;;;;;;;3.66;100.00;101004.34;5093831;28;20055;-80
2021/12/18 12:15:23;;;;;;;16.63;9.05;;;;;;;3.67;99.99;100999.81;5097996;28;20044;-79
2021/12/18 12:17:58;;;;;;;13.53;7.10;;;;;;;3.40;100.00;100976.34;5092904;28;20479;-79
2021/12/18 12:20:38;;;;;;;17.60;8.27;;;;;;;3.44;100.00;101009.31;5099712;28;20291;-79
2021/12/18 12:23:06;;;;;;;15.40;8.00;;;;;;;3.45;100.00;100990.38;5088713;28;20044;-79
2021/12/18 12:25:49;;;;;;;15.25;7.75;;;;;;;3.17;100.00;100999.25;5095406;28;20044;-80
2021/12/18 12:42:28;;;;;;;17.85;8.63;;;;;;;3.68;100.00;100972.81;5103501;28;20074;-79
2021/12/18 12:45:02;;;;;;;19.48;9.85;;;;;;;3.64;100.00;100979.34;5098074;28;20066;-80
2021/12/18 12:47:31;;;;;;;18.25;9.32;;;;;;;3.51;100.00;100949.66;5114026;28;20047;-79
2021/12/18 12:49:59;;;;;;;21.60;10.33;;;;;;;3.42;100.00;100949.34;5112641;28;20109;-80
2021/12/18 12:52:28;;;;;;;17.77;9.85;;;;;;;3.43;100.00;100965.41;5094336;28;20052;-80
2021/12/18 12:55:03;;;;;;;18.73;8.70;;;;;;;3.64;100.00;100962.34;5094511;28;20362;-80
2021/12/18 12:57:44;;;;;;;21.85;10.35;;;;;;;3.40;100.00;100943.22;5113036;28;20059;-80
2021/12/18 13:00:45;;;;;;;19.05;9.65;;;;;;;3.60;100.00;100966.16;5113100;28;20482;-79
2021/12/18 13:03:34;;;;;;;24.92;10.50;;;;;;;3.39;100.00;100952.25;5108526;28;20047;-79
2021/12/18 13:06:16;;;;;;;18.10;9.88;;;;;;;3.52;100.00;100953.22;5107531;28;20436;-79
2021/12/18 13:08:47;;;;;;;17.15;9.60;;;;;;;3.37;100.00;100938.88;5091096;28;20157;-79
2021/12/18 13:11:24;;;;;;;21.00;10.10;;;;;;;3.36;100.00;100947.94;5091399;28;20089;-78
2021/12/18 13:13:53;;;;;;;19.90;9.77;;;;;;;3.39;100.00;100955.81;5102352;28;20505;-80
2021/12/18 13:16:22;;;;;;;17.30;10.15;;;;;;;3.52;100.00;100951.41;5112881;28;20047;-78
2021/12/18 13:18:51;;;;;;;16.92;9.65;;;;;;;3.44;100.00;100940.25;5099996;28;20340;-77
2021/12/18 13:21:23;;;;;;;24.45;10.80;;;;;;;3.55;100.00;100944.94;5091361;28;20044;-78
2021/12/18 13:24:00;;;;;;;19.17;9.32;;;;;;;3.40;100.00;100922.56;5092526;28;20443;-79
2021/12/18 13:26:34;;;;;;;18.73;10.00;;;;;;;3.47;100.00;100933.81;5105098;28;20047;-78
2021/12/18 13:29:06;;;;;;;19.35;11.05;;;;;;;3.47;100.00;100937.38;5111974;28;20051;-78
2021/12/18 13:31:38;;;;;;;20.13;10.73;;;;;;;3.41;100.00;100945.81;5099653;28;20054;-78
2021/12/18 13:34:08;;;;;;;21.58;11.20;;;;;;;3.58;100.00;100943.91;5094217;28;20040;-78
2021/12/18 13:36:50;;;;;;;22.23;11.07;;;;;;;3.66;100.00;100938.91;5093331;28;20063;-78
2021/12/18 13:39:22;;;;;;;20.15;10.02;;;;;;;3.74;100.00;100941.97;5093040;28;20059;-78
2021/12/18 13:42:01;;;;;;;22.33;11.13;;;;;;;3.54;100.00;100929.78;5096979;28;20067;-79
2021/12/18 13:44:40;;;;;;;17.30;9.50;;;;;;;3.41;100.00;100924.31;5095429;28;20052;-79
2021/12/18 13:47:21;;;;;;;19.33;10.00;;;;;;;3.53;100.00;100931.59;5088754;28;20048;-79
2021/12/18 13:49:49;;;;;;;19.70;10.07;;;;;;;3.57;100.00;100934.09;5091658;28;20063;-79
2021/12/18 13:52:32;;;;;;;22.45;9.38;;;;;;;3.67;100.00;100932.56;5092643;28;20067;-79
2021/12/18 13:54:58;;;;;;;17.45;9.10;;;;;;;3.69;100.00;100925.28;5092821;28;20055;-79
2021/12/18 13:57:27;;;;;;;15.68;8.30;;;;;;;3.75;100.00;100926.69;5092740;28;20433;-79
2021/12/18 13:59:59;;;;;;;17.90;8.50;;;;;;;3.69;100.00;100922.59;5092035;28;20445;-79
2021/12/18 14:02:27;;;;;;;15.35;8.90;;;;;;;3.56;100.00;100925.16;5091951;28;20140;-79
2021/12/18 14:04:55;;;;;;;15.95;9.02;;;;;;;3.43;100.00;100902.69;5091300;28;20059;-79
2021/12/18 14:07:28;;;;;;;19.67;9.43;;;;;;;3.53;100.00;100914.59;5080554;28;20513;-79
2021/12/18 14:09:55;;;;;;;17.58;9.32;;;;;;;3.69;100.00;100914.53;5092691;28;20491;-79
2021/12/18 14:12:25;;;;;;;19.35;9.45;;;;;;;3.49;100.00;100910.38;5092408;28;20052;-79
2021/12/18 14:14:53;;;;;;;18.88;10.57;;;;;;;3.47;100.00;100909.63;5103383;28;20051;-79
2021/12/18 14:17:33;;;;;;;20.27;9.88;;;;;;;3.34;100.00;100909.50;5090620;28;20055;-79
2021/12/18 14:20:11;;;;;;;13.68;8.55;;;;;;;3.42;100.00;100901.84;5092484;28;20048;-79
2021/12/18 14:22:40;;;;;;;22.95;9.20;;;;;;;3.44;100.00;100912.50;5089052;28;20040;-79
2021/12/18 14:25:11;;;;;;;24.63;9.90;;;;;;;3.24;100.00;100887.72;5091693;28;20066;-79
2021/12/18 14:27:45;;;;;;;19.30;9.50;;;;;;;3.55;100.00;100899.22;5096195;28;20072;-79
2021/12/18 14:30:15;;;;;;;20.00;10.25;;;;;;;3.42;100.00;100891.09;5088439;28;20056;-79
2021/12/18 14:32:45;;;;;;;17.80;9.88;;;;;;;3.49;100.00;100905.88;5075351;28;21542;-78
2021/12/18 14:35:15;;;;;;;19.17;9.50;;;;;;;3.53;100.00;100909.22;5086575;28;20135;-79
2021/12/18 14:37:58;;;;;;;;;;;;;;;3.61;100.00;100904.22;5081770;28;20055;-79
2021/12/18 14:40:27;;;;;;;17.25;9.70;;;;;;;3.56;100.00;100889.34;5082815;28;19939;-78
2021/12/18 14:43:05;;;;;;;17.65;8.73;;;;;;;3.63;100.00;100907.69;5088858;28;20052;-78
2021/12/18 14:45:34;;;;;;;16.23;8.77;;;;;;;3.51;100.00;100908.47;5086859;28;20086;-79
2021/12/18 14:48:05;;;;;;;20.98;9.30;;;;;;;3.44;100.00;100912.50;5089136;28;20044;-78
2021/12/18 14:50:33;;;;;;;18.55;9.80;;;;;;;3.46;100.00;100908.78;5079218;28;20048;-78
2021/12/18 14:53:11;;;;;;;14.20;9.18;;;;;;;3.40;100.00;100910.97;5088714;28;20093;-81
2021/12/18 14:55:51;;;;;;;15.13;8.55;;;;;;;3.35;100.00;100914.78;5088277;28;20495;-79
2021/12/18 14:58:23;;;;;;;21.60;11.13;;;;;;;3.29;100.00;100899.03;5101928;28;20415;-79
2021/12/18 15:00:53;;;;;;;14.80;8.65;;;;;;;3.38;100.00;100913.75;5078475;28;20055;-79
2021/12/18 15:03:29;;;;;;;18.42;8.57;;;;;;;3.27;100.00;100911.72;5091556;28;20592;-78
2021/12/18 15:06:09;;;;;;;19.88;8.45;;;;;;;3.29;100.00;100899.03;5094504;27;20047;-79
2021/12/18 15:08:42;;;;;;;16.10;8.73;;;;;;;3.35;100.00;100903.19;5088166;28;20048;-79
2021/12/18 15:11:16;;;;;;;17.13;9.00;;;;;;;3.31;100.00;100904.31;5099757;27;20047;-79
2021/12/18 15:13:54;;;;;;;18.58;9.43;;;;;;;3.39;100.00;100914.59;5100174;28;20448;-79
2021/12/18 15:16:36;;;;;;;18.75;10.13;;;;;;;3.33;100.00;100913.19;5094925;28;20056;-79
2021/12/18 15:19:11;;;;;;;15.95;8.23;;;;;;;3.13;100.00;100896.47;5094157;28;20048;-79
2021/12/18 15:21:44;;;;;;;20.13;8.73;;;;;;;3.29;100.00;100912.50;5091872;28;20123;-79
2021/12/18 15:24:12;;;;;;;18.17;9.50;;;;;;;3.31;100.00;100912.41;5083727;28;20097;-79
2021/12/18 15:26:41;;;;;;;15.02;8.80;;;;;;;3.35;100.00;100901.34;5084365;28;20040;-79
2021/12/18 15:29:13;;;;;;;14.87;8.17;;;;;;;3.31;100.00;100904.31;5092378;28;20487;-79
2021/12/18 15:31:41;;;;;;;22.67;10.50;;;;;;;3.30;100.00;100883.81;5085646;28;20047;-79
2021/12/18 15:34:11;;;;;;;15.35;8.65;;;;;;;3.35;100.00;100900.50;5093839;28;20143;-78
2021/12/18 15:36:40;;;;;;;16.50;8.55;;;;;;;3.33;100.00;100897.06;5086075;28;20048;-79
2021/12/18 15:39:07;;;;;;;20.52;10.38;;;;;;;3.35;100.00;100900.50;5092861;28;20498;-79
2021/12/18 15:41:35;;;;;;;21.98;10.82;;;;;;;3.15;100.00;100881.09;5092022;28;20048;-79
2021/12/18 15:44:03;;;;;;;17.00;10.32;;;;;;;3.13;100.00;100896.47;5097946;28;20048;-79
2021/12/18 15:46:34;;;;;;;20.65;11.02;;;;;;;3.19;100.00;100887.13;5090365;28;20048;-79
2021/12/18 15:49:03;;;;;;;19.30;9.75;;;;;;;3.06;100.00;100894.25;5099967;28;20059;-79
2021/12/18 15:51:33;;;;;;;18.23;10.23;;;;;;;3.21;100.00;100900.47;5092320;28;20602;-78
2021/12/18 15:54:02;;;;;;;19.27;9.55;;;;;;;3.11;100.00;100876.00;5089155;28;20044;-79
2021/12/18 15:56:29;;;;;;;17.00;8.27;;;;;;;3.22;100.00;100897.69;5081147;28;20136;-78
2021/12/18 15:58:56;;;;;;;19.88;10.25;;;;;;;3.27;100.00;100892.91;5088957;28;20055;-79
2021/12/18 16:01:34;;;;;;;16.13;9.75;;;;;;;3.18;100.00;100896.19;5088442;28;20048;-79
2021/12/18 16:04:02;;;;;;;18.48;9.65;;;;;;;3.23;100.00;100874.38;5104168;28;20048;-78
2021/12/18 16:06:31;;;;;;;24.08;10.10;;;;;;;3.36;100.00;100891.47;5072889;28;20048;-79
2021/12/18 16:09:00;;;;;;;20.02;10.95;;;;;;;3.32;100.00;100898.00;5096167;28;20045;-79
2021/12/18 16:11:27;;;;;;;21.35;11.02;;;;;;;3.23;100.00;100890.50;5091224;28;20048;-79
2021/12/18 16:13:55;;;;;;;22.85;10.95;;;;;;;2.92;100.00;100876.25;5091501;28;20051;-79
2021/12/18 16:16:22;;;;;;;25.30;12.05;;;;;;;2.95;100.00;100879.66;5092411;28;20380;-79
2021/12/18 16:18:49;;;;;;;28.15;12.00;;;;;;;3.18;100.00;100896.19;5091464;28;20312;-79
2021/12/18 16:21:18;;;;;;;23.08;11.95;;;;;;;3.06;100.00;100878.97;5092507;28;20044;-79
2021/12/18 16:23:47;;;;;;;21.57;10.90;;;;;;;3.00;100.00;100895.47;5073125;28;20480;-79
2021/12/18 16:26:16;;;;;;;20.80;10.18;;;;;;;3.06;100.00;100888.88;5086096;28;20332;-79
2021/12/18 16:28:45;;;;;;;20.83;11.27;;;;;;;3.05;100.00;100868.34;5094435;28;20047;-79
2021/12/18 16:31:12;;;;;;;19.80;10.48;;;;;;;3.01;100.00;100879.28;5076394;28;20100;-79
2021/12/18 16:33:42;;;;;;;22.80;10.82;;;;;;;2.87;100.00;100860.44;5087597;28;20036;-79
2021/12/18 16:36:14;;;;;;;;;;;;;;;2.95;100.00;100879.66;5114168;27;20055;-79
2021/12/18 16:38:41;;;;;;;30.35;11.35;;;;;;;2.88;100.00;100845.19;5089866;28;19934;-79
2021/12/18 16:41:10;;;;;;;19.52;10.73;;;;;;;2.92;100.00;100854.78;5103117;28;20051;-79
2021/12/18 16:43:39;;;;;;;25.08;12.25;;;;;;;2.87;100.00;100849.69;5091145;28;20126;-79
2021/12/18 16:46:07;;;;;;;25.15;12.50;;;;;;;3.05;100.00;100855.75;5093271;28;20040;-79
2021/12/18 16:48:36;;;;;;;26.90;12.90;;;;;;;3.06;100.00;100849.44;5092748;28;20106;-79
2021/12/18 16:51:03;;;;;;;24.10;11.70;;;;;;;2.97;100.00;100845.47;5091877;28;20101;-79
2021/12/18 16:53:30;;;;;;;22.60;11.77;;;;;;;3.00;100.00;100863.25;5086196;28;20070;-79
2021/12/18 16:55:57;;;;;;;26.50;12.02;;;;;;;3.10;100.00;100871.59;5094624;28;20044;-79
2021/12/18 16:58:26;;;;;;;26.50;12.63;;;;;;;2.93;100.00;100859.19;5082109;28;20721;-79
2021/12/18 17:00:56;;;;;;;26.33;12.70;;;;;;;2.96;100.00;100864.38;5082307;28;20121;-79
2021/12/18 17:03:24;;;;;;;29.30;12.68;;;;;;;2.87;100.00;100876.53;5073833;28;20127;-79
2021/12/18 17:05:51;;;;;;;23.65;12.48;;;;;;;2.75;100.00;100856.66;5077037;28;20048;-79
2021/12/18 17:08:17;;;;;;;29.83;13.68;;;;;;;2.83;100.00;100875.00;5072756;28;20053;-79
2021/12/18 17:10:48;;;;;;;25.40;12.65;;;;;;;2.78;100.00;100869.06;5091159;28;20509;-79
2021/12/18 17:13:16;;;;;;;25.63;13.15;;;;;;;2.86;100.00;100869.47;5091938;28;20302;-79
2021/12/18 17:15:43;;;;;;;29.83;13.30;;;;;;;2.79;100.00;100885.06;5111120;28;20483;-80
2021/12/18 17:18:11;;;;;;;26.48;13.75;;;;;;;2.87;100.00;100881.06;5084484;28;20089;-79
2021/12/18 17:20:40;;;;;;;28.25;13.73;;;;;;;2.86;100.00;100882.91;5108884;28;20502;-79
2021/12/18 17:23:07;;;;;;;29.08;13.73;;;;;;;2.77;100.00;100880.75;5102311;28;20055;-79
2021/12/18 17:25:34;;;;;;;24.60;12.35;;;;;;;3.00;100.00;100888.28;5095027;28;20125;-79
2021/12/18 17:28:02;;;;;;;24.58;11.88;;;;;;;2.99;100.00;100883.84;5099945;28;20048;-79
2021/12/18 17:30:29;;;;;;;25.92;13.85;;;;;;;2.80;100.00;100859.06;5094562;28;20052;-79
2021/12/18 17:32:59;;;;;;;28.20;13.68;;;;;;;2.83;100.00;100866.94;5100568;28;20387;-79
2021/12/18 17:35:28;;;;;;;25.08;12.57;;;;;;;2.65;100.00;100856.38;5091684;28;20048;-79
2021/12/18 17:37:55;;;;;;;29.48;13.77;;;;;;;2.70;100.00;100876.72;5092215;28;20054;-79
2021/12/18 17:40:23;;;;;;;27.77;12.82;;;;;;;2.79;100.00;100879.72;5104986;28;20429;-79
2021/12/18 17:42:54;;;;;;;25.85;12.77;;;;;;;2.72;100.00;100866.75;5091412;28;20380;-79
2021/12/18 17:45:22;;;;;;;35.88;14.27;;;;;;;2.72;100.00;100872.97;5091154;28;20121;-79
2021/12/18 17:47:50;;;;;;;31.52;14.70;;;;;;;2.70;100.00;100857.94;5093688;28;20047;-79
2021/12/18 17:50:17;;;;;;;26.15;12.15;;;;;;;2.92;100.00;100887.91;5104590;28;20055;-79
2021/12/18 17:52:47;;;;;;;23.63;12.23;;;;;;;2.81;100.00;100869.72;5091708;28;20568;-79
2021/12/18 17:55:19;;;;;;;31.20;14.55;;;;;;;2.77;100.00;100856.56;5091610;28;20450;-79
2021/12/18 17:57:48;;;;;;;26.75;12.70;;;;;;;2.65;100.00;100860.88;5093722;28;20297;-79
2021/12/18 18:00:19;;;;;;;26.83;12.70;;;;;;;2.62;100.00;100863.72;5095505;28;20074;-79
2021/12/18 18:02:48;;;;;;;27.20;13.93;;;;;;;2.56;100.00;100851.56;5093188;28;20058;-79
2021/12/18 18:05:16;;;;;;;32.60;14.27;;;;;;;2.75;100.00;100867.41;5111025;28;20050;-79
2021/12/18 18:07:47;;;;;;;27.27;12.82;;;;;;;2.70;100.00;100850.72;5098356;28;20043;-79
2021/12/18 18:10:17;;;;;;;26.35;12.77;;;;;;;2.74;100.00;100875.56;5091437;28;20610;-79
2021/12/18 18:12:44;;;;;;;29.80;13.70;;;;;;;2.58;100.00;100864.91;5091102;28;20060;-79
2021/12/18 18:15:11;;;;;;;26.77;11.98;;;;;;;2.50;100.00;100859.09;5091550;28;20043;-79
2021/12/18 18:17:38;;;;;;;27.23;13.15;;;;;;;2.54;100.00;100860.66;5091578;28;20043;-79
2021/12/18 18:20:06;;;;;;;31.10;14.10;;;;;;;2.58;100.00;100865.75;5090628;28;20044;-79
2021/12/18 18:22:33;;;;;;;30.95;13.23;;;;;;;2.53;100.00;100862.50;5097103;28;20052;-78
2021/12/18 18:25:00;;;;;;;25.45;14.30;;;;;;;2.51;100.00;100856.31;5102688;28;20048;-78
2021/12/18 18:27:28;;;;;;;26.92;13.77;;;;;;;2.69;100.00;100866.94;5091572;28;20512;-78
2021/12/18 18:29:55;;;;;;;28.33;13.30;;;;;;;2.73;100.00;100872.03;5090919;28;20048;-78
2021/12/18 18:32:22;;;;;;;26.92;12.75;;;;;;;2.76;100.00;100866.47;5091201;28;20063;-78
2021/12/18 18:34:49;;;;;;;23.67;12.05;;;;;;;2.57;100.00;100858.63;5094091;28;20040;-78
2021/12/18 18:37:21;;;;;;;26.67;12.73;;;;;;;2.63;100.00;100876.22;5095485;28;20445;-78
2021/12/18 18:39:56;;;;;;;33.28;14.77;;;;;;;2.51;100.00;100868.91;5088973;28;20127;-82
2021/12/18 18:42:28;;;;;;;32.50;14.93;;;;;;;2.45;100.00;100860.25;5093142;28;20055;-85
2021/12/18 18:45:02;;;;;;;35.10;15.43;;;;;;;2.36;100.00;100857.25;5101295;28;20123;-85
2021/12/18 18:47:36;;;;;;;28.80;13.75;;;;;;;2.34;100.00;100862.69;5097335;28;20509;-83
2021/12/18 18:50:07;;;;;;;28.80;13.80;;;;;;;2.39;100.00;100859.75;5097706;28;20052;-84
2021/12/18 18:52:44;;;;;;;32.03;14.27;;;;;;;2.53;100.00;100866.97;5099296;28;20051;-83
2021/12/18 18:55:11;;;;;;;34.78;15.15;;;;;;;2.50;100.00;100869.84;5099437;28;20128;-78
2021/12/18 18:57:41;;;;;;;39.65;17.73;;;;;;;2.38;100.00;100869.63;5093810;28;20047;-79
2021/12/18 19:00:09;;;;;;;62.63;23.58;;;;;;;2.48;100.00;100865.44;5097034;28;20044;-79
2021/12/18 19:02:38;;;;;;;39.35;18.40;;;;;;;2.46;100.00;100874.53;5093648;28;20052;-79
2021/12/18 19:05:06;;;;;;;58.60;23.83;;;;;;;2.50;100.00;100881.47;5096047;28;20544;-79
2021/12/18 19:07:33;;;;;;;36.88;14.85;;;;;;;2.35;100.00;100869.81;5088765;28;20786;-79
2021/12/18 19:10:00;;;;;;;31.30;14.57;;;;;;;2.43;100.00;100880.09;5084407;28;20053;-79
2021/12/18 19:12:27;;;;;;;31.38;14.60;;;;;;;2.41;100.00;100874.81;5077503;28;20086;-79
2021/12/18 19:14:55;;;;;;;30.48;14.60;;;;;;;2.47;100.00;100873.59;5095620;28;20036;-79
2021/12/18 19:17:22;;;;;;;31.58;14.73;;;;;;;2.59;100.00;100878.22;5095780;28;20047;-79
2021/12/18 19:19:52;;;;;;;26.42;13.10;;;;;;;2.45;100.00;100875.47;5080843;28;20044;-79
2021/12/18 19:22:22;;;;;;;30.27;14.98;;;;;;;2.35;100.00;100858.19;5075500;28;20051;-79
2021/12/18 19:24:48;;;;;;;;;;;;;;;2.45;100.00;100854.91;5086981;28;20487;-78
2021/12/18 19:27:15;;;;;;;29.77;14.48;;;;;;;2.31;100.00;100844.09;5092784;28;19994;-79
2021/12/18 19:29:42;;;;;;;30.08;15.57;;;;;;;2.30;100.00;100850.41;5079672;28;20048;-78
2021/12/18 19:32:10;;;;;;;30.20;12.95;;;;;;;2.33;100.00;100852.91;5093789;28;20054;-78
2021/12/18 19:34:39;;;;;;;29.60;14.10;;;;;;;2.23;100.00;100835.63;5095348;28;20052;-79
2021/12/18 19:37:05;;;;;;;34.70;13.82;;;;;;;2.29;100.00;100841.50;5085799;28;20056;-79
2021/12/18 19:39:35;;;;;;;30.52;13.52;;;;;;;2.32;100.00;100850.31;5075658;28;20053;-78
2021/12/18 19:42:02;;;;;;;33.58;13.90;;;;;;;2.25;100.00;100831.03;5088374;28;20044;-79
2021/12/18 19:44:31;;;;;;;35.78;14.65;;;;;;;2.18;100.00;100830.53;5090323;28;20048;-79
2021/12/18 19:46:58;;;;;;;33.50;14.15;;;;;;;2.37;100.00;100845.56;5085529;28;20051;-78
2021/12/18 19:49:26;;;;;;;32.10;13.75;;;;;;;2.32;100.00;100844.94;5081751;28;20056;-79
2021/12/18 19:51:55;;;;;;;34.67;15.85;;;;;;;2.29;100.00;100840.66;5083241;28;20043;-79